createdAt,value
2022-12-06T00:01:48.057Z,5.30
2022-12-06T00:04:15.494Z,4.35
2022-12-06T00:06:43.806Z,4.65
2022-12-06T00:09:22.106Z,4.70
2022-12-06T00:11:48.591Z,4.95
2022-12-06T00:14:15.130Z,4.28
2022-12-06T00:16:41.680Z,4.43
2022-12-06T00:19:08.262Z,4.47
2022-12-06T00:21:35.951Z,4.20
2022-12-06T00:24:07.302Z,4.28
2022-12-06T00:26:38.140Z,4.45
2022-12-06T00:29:04.864Z,3.97
2022-12-06T00:31:32.028Z,4.22
2022-12-06T00:33:58.540Z,3.85
2022-12-06T00:36:29.289Z,3.70
2022-12-06T00:38:55.845Z,3.75
2022-12-06T00:41:23.749Z,4.00
2022-12-06T00:43:51.010Z,3.67
2022-12-06T00:46:28.108Z,4.00
2022-12-06T00:48:55.219Z,3.90
2022-12-06T00:51:22.040Z,3.60
2022-12-06T00:53:48.674Z,3.75
2022-12-06T00:56:15.531Z,3.42
2022-12-06T00:58:42.312Z,3.88
2022-12-06T01:01:12.411Z,3.42
2022-12-06T01:03:39.685Z,3.22
2022-12-06T01:06:07.781Z,3.30
2022-12-06T01:08:34.525Z,3.38
2022-12-06T01:11:01.065Z,3.10
2022-12-06T01:13:27.605Z,3.80
2022-12-06T01:15:54.255Z,3.50
2022-12-06T01:18:21.276Z,3.42
2022-12-06T01:20:48.048Z,3.58
2022-12-06T01:23:14.904Z,3.17
2022-12-06T01:25:53.831Z,3.28
2022-12-06T01:28:20.361Z,3.25
2022-12-06T01:30:46.997Z,3.05
2022-12-06T01:33:13.490Z,2.80
2022-12-06T01:35:41.333Z,3.00
2022-12-06T01:38:08.615Z,3.28
2022-12-06T01:40:39.459Z,3.00
2022-12-06T01:43:06.465Z,2.70
2022-12-06T01:45:32.921Z,3.10
2022-12-06T01:47:59.414Z,2.78
2022-12-06T01:50:28.120Z,2.78
2022-12-06T01:53:06.693Z,2.80
2022-12-06T01:55:35.436Z,2.75
2022-12-06T01:58:07.732Z,2.50
2022-12-06T02:00:34.198Z,2.65
2022-12-06T02:03:00.727Z,2.83
2022-12-06T02:05:27.277Z,2.45
2022-12-06T02:07:53.809Z,2.50
2022-12-06T02:10:20.323Z,2.58
2022-12-06T02:12:55.057Z,2.33
2022-12-06T02:15:21.530Z,2.60
2022-12-06T02:17:56.880Z,2.40
2022-12-06T02:20:29.294Z,2.40
2022-12-06T02:23:27.236Z,2.53
2022-12-06T02:26:18.517Z,1.90
2022-12-06T02:29:00.063Z,2.38
2022-12-06T02:31:42.894Z,2.28
2022-12-06T02:34:20.017Z,2.03
2022-12-06T02:36:51.306Z,2.42
2022-12-06T02:39:58.123Z,2.47
2022-12-06T02:42:27.147Z,2.17
2022-12-06T02:44:54.724Z,2.25
2022-12-06T02:47:23.514Z,2.40
2022-12-06T02:49:50.288Z,1.85
2022-12-06T02:52:18.037Z,2.10
2022-12-06T02:54:45.128Z,2.10
2022-12-06T02:57:11.626Z,2.33
2022-12-06T02:59:38.068Z,2.28
2022-12-06T03:02:05.524Z,1.80
2022-12-06T03:04:46.184Z,2.10
2022-12-06T03:07:27.914Z,1.90
2022-12-06T03:10:25.311Z,1.77
2022-12-06T03:13:01.862Z,2.35
2022-12-06T03:15:40.965Z,1.75
2022-12-06T03:18:16.868Z,1.90
2022-12-06T03:20:47.243Z,1.90
2022-12-06T03:23:15.668Z,1.65
2022-12-06T03:25:42.732Z,1.88
2022-12-06T03:28:09.830Z,1.70
2022-12-06T03:30:36.351Z,1.90
2022-12-06T03:33:02.905Z,2.20
2022-12-06T03:35:31.322Z,1.67
2022-12-06T03:38:03.085Z,1.95
2022-12-06T03:40:30.688Z,2.88
2022-12-06T03:42:57.176Z,2.90
2022-12-06T03:45:26.848Z,2.40
2022-12-06T03:47:56.466Z,2.80
2022-12-06T03:50:27.540Z,3.05
2022-12-06T03:52:54.468Z,2.70
2022-12-06T03:55:21.112Z,3.03
2022-12-06T03:57:47.571Z,2.65
2022-12-06T04:00:14.789Z,2.70
2022-12-06T04:02:41.345Z,2.85
2022-12-06T04:05:08.111Z,2.92
2022-12-06T04:07:34.650Z,2.75
2022-12-06T04:10:03.965Z,3.10
2022-12-06T04:12:52.475Z,3.13
2022-12-06T04:15:19.479Z,3.22
2022-12-06T04:18:04.596Z,2.60
2022-12-06T04:20:51.160Z,3.22
2022-12-06T04:23:18.285Z,3.95
2022-12-06T04:25:44.736Z,3.05
2022-12-06T04:28:29.761Z,3.00
2022-12-06T04:31:18.633Z,3.22
2022-12-06T04:34:07.100Z,3.22
2022-12-06T04:36:51.956Z,3.08
2022-12-06T04:39:21.145Z,3.15
2022-12-06T04:42:07.128Z,3.28
2022-12-06T04:44:33.577Z,3.10
2022-12-06T04:47:00.440Z,2.85
2022-12-06T04:49:26.945Z,3.38
2022-12-06T04:51:54.440Z,2.72
2022-12-06T04:54:21.721Z,2.40
2022-12-06T04:56:48.177Z,2.70
2022-12-06T04:59:14.763Z,2.90
2022-12-06T05:01:41.228Z,2.85
2022-12-06T05:04:07.782Z,3.08
2022-12-06T05:06:34.419Z,2.80
2022-12-06T05:09:00.895Z,2.80
2022-12-06T05:11:27.632Z,2.90
2022-12-06T05:13:54.076Z,2.22
2022-12-06T05:16:20.620Z,2.35
2022-12-06T05:18:47.105Z,2.45
2022-12-06T05:21:17.980Z,2.70
2022-12-06T05:23:44.498Z,2.35
2022-12-06T05:26:15.748Z,2.58
2022-12-06T05:28:42.678Z,2.58
2022-12-06T05:31:09.302Z,2.67
2022-12-06T05:33:36.162Z,2.33
2022-12-06T05:36:12.909Z,2.55
2022-12-06T05:38:39.414Z,2.70
2022-12-06T05:41:06.592Z,2.40
2022-12-06T05:43:33.147Z,2.35
2022-12-06T05:45:59.771Z,2.15
2022-12-06T05:48:26.400Z,2.58
2022-12-06T05:50:53.700Z,2.65
2022-12-06T05:53:20.436Z,2.20
2022-12-06T05:55:46.957Z,2.50
2022-12-06T05:58:13.420Z,2.15
2022-12-06T06:00:39.900Z,2.08
2022-12-06T06:03:06.519Z,2.30
2022-12-06T06:05:33.101Z,2.38
2022-12-06T06:08:00.055Z,1.95
2022-12-06T06:10:26.576Z,1.85
2022-12-06T06:12:53.083Z,1.92
2022-12-06T06:15:19.529Z,2.08
2022-12-06T06:17:46.057Z,1.73
2022-12-06T06:20:13.787Z,2.15
2022-12-06T06:22:40.544Z,1.95
2022-12-06T06:25:07.389Z,2.00
2022-12-06T06:27:36.945Z,1.85
2022-12-06T06:30:08.372Z,1.73
2022-12-06T06:32:35.154Z,1.90
2022-12-06T06:35:01.764Z,1.70
2022-12-06T06:37:28.231Z,1.83
2022-12-06T06:39:54.727Z,1.63
2022-12-06T06:42:21.570Z,1.90
2022-12-06T06:44:48.087Z,1.83
2022-12-06T06:47:14.810Z,2.00
2022-12-06T06:49:41.323Z,1.83
2022-12-06T06:52:07.846Z,1.58
2022-12-06T06:54:34.339Z,1.90
2022-12-06T06:57:02.314Z,1.75
2022-12-06T06:59:28.770Z,1.60
2022-12-06T07:01:55.297Z,1.60
2022-12-06T07:04:22.490Z,1.83
2022-12-06T07:06:48.977Z,1.60
2022-12-06T07:09:15.451Z,1.60
2022-12-06T07:11:42.293Z,1.83
2022-12-06T07:14:08.797Z,1.40
2022-12-06T07:16:35.368Z,1.60
2022-12-06T07:19:06.264Z,1.60
2022-12-06T07:21:35.407Z,1.33
2022-12-06T07:24:01.892Z,1.63
2022-12-06T07:26:29.036Z,1.60
2022-12-06T07:28:57.725Z,1.35
2022-12-06T07:31:25.959Z,1.60
2022-12-06T07:33:54.214Z,1.70
2022-12-06T07:36:22.654Z,1.70
2022-12-06T07:38:50.277Z,1.45
2022-12-06T07:41:35.404Z,1.30
2022-12-06T07:44:20.704Z,1.42
2022-12-06T07:46:47.306Z,1.50
2022-12-06T07:49:17.349Z,1.50
2022-12-06T07:51:44.430Z,1.40
2022-12-06T07:54:10.972Z,1.20
2022-12-06T07:56:37.613Z,1.30
2022-12-06T07:59:04.066Z,1.40
2022-12-06T08:01:30.582Z,1.30
2022-12-06T08:04:01.993Z,1.27
2022-12-06T08:06:28.473Z,1.60
2022-12-06T08:08:54.937Z,1.42
2022-12-06T08:11:22.703Z,1.50
2022-12-06T08:13:49.364Z,1.02
2022-12-06T08:16:15.869Z,1.40
2022-12-06T08:18:42.356Z,1.27
2022-12-06T08:21:09.334Z,1.23
2022-12-06T08:23:35.889Z,1.20
2022-12-06T08:26:07.293Z,1.25
2022-12-06T08:28:34.063Z,1.25
2022-12-06T08:31:04.670Z,1.23
2022-12-06T08:33:32.526Z,1.23
2022-12-06T08:35:58.982Z,1.10
2022-12-06T08:38:25.466Z,1.17
2022-12-06T08:40:51.928Z,1.20
2022-12-06T08:43:18.396Z,1.50
2022-12-06T08:45:44.892Z,1.20
2022-12-06T08:48:11.818Z,1.30
2022-12-06T08:50:38.636Z,1.40
2022-12-06T08:53:05.406Z,1.30
2022-12-06T08:55:31.859Z,1.25
2022-12-06T08:57:58.331Z,1.38
2022-12-06T09:00:24.872Z,1.20
2022-12-06T09:02:51.384Z,1.40
2022-12-06T09:05:17.827Z,1.38
2022-12-06T09:07:44.327Z,1.13
2022-12-06T09:10:11.241Z,1.15
2022-12-06T09:12:37.709Z,1.42
2022-12-06T09:15:04.673Z,1.23
2022-12-06T09:17:31.177Z,1.20
2022-12-06T09:20:00.842Z,1.38
2022-12-06T09:22:31.847Z,1.27
2022-12-06T09:24:58.548Z,1.15
2022-12-06T09:27:25.116Z,1.15
2022-12-06T09:29:51.586Z,1.15
2022-12-06T09:32:18.050Z,1.17
2022-12-06T09:34:44.775Z,1.17
2022-12-06T09:37:12.016Z,1.20
2022-12-06T09:39:47.301Z,1.17
2022-12-06T09:42:48.037Z,1.27
2022-12-06T09:45:46.653Z,1.00
2022-12-06T09:48:38.114Z,1.48
2022-12-06T09:51:41.721Z,1.20
2022-12-06T09:54:38.871Z,1.20
2022-12-06T09:57:26.572Z,1.30
2022-12-06T10:00:11.607Z,0.95
2022-12-06T10:02:48.553Z,1.20
2022-12-06T10:05:36.311Z,1.10
2022-12-06T10:08:31.077Z,1.00
2022-12-06T10:11:12.521Z,0.90
2022-12-06T10:14:03.738Z,1.10
2022-12-06T10:16:40.897Z,0.93
2022-12-06T10:19:44.577Z,1.00
2022-12-06T10:22:26.126Z,1.30
2022-12-06T10:25:12.406Z,1.10
2022-12-06T10:27:40.476Z,1.10
2022-12-06T10:30:10.560Z,1.05
2022-12-06T10:32:48.601Z,0.98
2022-12-06T10:35:41.689Z,1.10
2022-12-06T10:38:08.042Z,1.38
2022-12-06T10:40:37.356Z,1.00
2022-12-06T10:43:18.137Z,1.10
2022-12-06T10:46:09.711Z,1.10
2022-12-06T10:48:43.727Z,1.20
2022-12-06T10:51:15.248Z,1.17
2022-12-06T10:53:45.909Z,1.10
2022-12-06T10:56:20.992Z,0.90
2022-12-06T10:58:59.835Z,0.90
2022-12-06T11:01:28.464Z,0.90
2022-12-06T11:04:04.390Z,1.08
2022-12-06T11:06:33.764Z,1.27
2022-12-06T11:09:29.422Z,0.82
2022-12-06T11:11:55.946Z,0.80
2022-12-06T11:14:26.660Z,0.88
2022-12-06T11:17:04.146Z,1.08
2022-12-06T11:19:34.489Z,1.00
2022-12-06T11:22:22.999Z,1.05
2022-12-06T11:25:06.288Z,0.98
2022-12-06T11:27:34.747Z,1.20
2022-12-06T11:30:08.989Z,1.20
2022-12-06T11:32:35.439Z,1.17
2022-12-06T11:35:01.977Z,1.30
2022-12-06T11:37:28.825Z,1.23
2022-12-06T11:40:28.657Z,1.20
2022-12-06T11:42:55.115Z,1.00
2022-12-06T11:45:26.442Z,1.35
2022-12-06T11:47:56.453Z,1.30
2022-12-06T11:50:23.342Z,1.27
2022-12-06T11:52:57.737Z,1.27
2022-12-06T11:55:26.782Z,1.10
2022-12-06T11:57:59.306Z,1.33
2022-12-06T12:00:25.818Z,1.20
2022-12-06T12:02:54.255Z,1.20
2022-12-06T12:05:21.965Z,1.30
2022-12-06T12:07:54.497Z,1.27
2022-12-06T12:10:47.481Z,1.40
2022-12-06T12:13:32.617Z,1.15
2022-12-06T12:16:01.184Z,1.38
2022-12-06T12:18:35.813Z,1.50
2022-12-06T12:21:02.792Z,1.38
2022-12-06T12:23:42.489Z,1.05
2022-12-06T12:26:11.862Z,1.25
2022-12-06T12:28:38.789Z,1.13
2022-12-06T12:31:26.581Z,1.77
2022-12-06T12:34:29.020Z,1.17
2022-12-06T12:37:00.812Z,1.63
2022-12-06T12:39:32.002Z,1.33
2022-12-06T12:41:58.563Z,1.30
2022-12-06T12:44:38.089Z,1.50
2022-12-06T12:47:14.582Z,1.00
2022-12-06T12:49:41.185Z,1.33
2022-12-06T12:52:29.440Z,1.55
2022-12-06T12:55:14.857Z,1.30
2022-12-06T12:57:42.046Z,1.40
2022-12-06T13:00:14.453Z,1.60
2022-12-06T13:02:40.977Z,1.10
2022-12-06T13:05:33.432Z,1.40
2022-12-06T13:08:06.741Z,1.40
2022-12-06T13:10:37.514Z,1.23
2022-12-06T13:13:10.648Z,1.20
2022-12-06T13:15:47.014Z,1.35
2022-12-06T13:18:21.068Z,1.20
2022-12-06T13:23:16.074Z,1.23
2022-12-06T13:25:43.417Z,1.00
2022-12-06T13:28:15.823Z,1.20
2022-12-06T13:30:42.353Z,1.23
2022-12-06T13:33:21.355Z,1.10
2022-12-06T13:36:01.052Z,0.95
2022-12-06T13:38:34.790Z,1.10
2022-12-06T13:41:02.135Z,1.10
2022-12-06T13:43:28.501Z,1.30
2022-12-06T13:46:07.405Z,1.10
2022-12-06T13:48:37.173Z,1.02
2022-12-06T13:51:10.863Z,0.93
2022-12-06T13:54:17.521Z,1.15
2022-12-06T13:56:44.034Z,1.15
2022-12-06T13:59:15.062Z,1.20
2022-12-06T14:01:48.939Z,1.00
2022-12-06T14:06:59.992Z,0.98
2022-12-06T14:09:28.533Z,1.02
2022-12-06T14:11:58.712Z,1.20
2022-12-06T14:14:25.355Z,1.02
2022-12-06T14:16:59.238Z,1.10
2022-12-06T14:19:28.648Z,1.13
2022-12-06T14:22:02.545Z,0.90
2022-12-06T14:24:37.072Z,0.85
2022-12-06T14:27:12.572Z,1.20
2022-12-06T14:29:39.293Z,1.05
2022-12-06T14:32:05.933Z,1.48
2022-12-06T14:34:34.370Z,1.40
2022-12-06T14:37:02.132Z,3.92
2022-12-06T14:39:30.414Z,2.50
2022-12-06T14:42:15.632Z,2.40
2022-12-06T14:44:47.354Z,1.60
2022-12-06T14:47:14.778Z,2.20
2022-12-06T14:49:59.978Z,1.50
2022-12-06T14:52:28.505Z,1.17
2022-12-06T14:55:10.224Z,1.45
2022-12-06T14:57:39.956Z,1.75
2022-12-06T15:00:27.497Z,1.60
2022-12-06T15:03:12.738Z,1.38
2022-12-06T15:05:40.958Z,1.13
2022-12-06T15:08:25.794Z,1.30
2022-12-06T15:11:10.857Z,1.27
2022-12-06T15:13:38.091Z,1.33
2022-12-06T15:16:07.694Z,1.35
2022-12-06T15:18:39.081Z,1.27
2022-12-06T15:21:16.351Z,1.02
2022-12-06T15:23:49.659Z,1.30
2022-12-06T15:26:16.453Z,0.95
2022-12-06T15:28:42.991Z,1.00
2022-12-06T15:31:22.741Z,1.08
2022-12-06T15:33:49.615Z,1.20
2022-12-06T15:36:18.067Z,1.00
2022-12-06T15:38:44.598Z,1.17
2022-12-06T15:41:29.248Z,0.90
2022-12-06T15:43:57.460Z,1.02
2022-12-06T15:46:25.706Z,1.00
2022-12-06T15:48:52.814Z,0.90
2022-12-06T15:51:21.423Z,0.88
2022-12-06T15:53:48.250Z,1.10
2022-12-06T15:56:16.023Z,1.33
2022-12-06T15:58:43.067Z,0.98
2022-12-06T16:01:32.893Z,1.40
2022-12-06T16:03:59.454Z,1.30
2022-12-06T16:06:26.720Z,1.40
2022-12-06T16:08:53.413Z,1.10
2022-12-06T16:11:21.446Z,1.10
2022-12-06T16:13:47.944Z,1.40
2022-12-06T16:16:16.304Z,1.25
2022-12-06T16:18:43.180Z,0.93
2022-12-06T16:21:22.993Z,1.48
2022-12-06T16:24:16.735Z,1.25
2022-12-06T16:26:44.828Z,1.20
2022-12-06T16:29:14.120Z,1.17
2022-12-06T16:31:42.275Z,1.33
2022-12-06T16:34:09.217Z,1.30
2022-12-06T16:36:35.889Z,1.33
2022-12-06T16:39:04.016Z,1.83
2022-12-06T16:41:33.383Z,2.63
2022-12-06T16:44:00.088Z,20.63
2022-12-06T16:46:34.506Z,24.77
2022-12-06T16:49:43.496Z,23.95
2022-12-06T16:51:52.023Z,23.65
2022-12-06T16:54:18.645Z,36.38
2022-12-06T16:56:45.184Z,39.97
2022-12-06T16:59:15.543Z,46.22
2022-12-06T17:01:52.478Z,40.03
2022-12-06T17:04:19.014Z,35.53
2022-12-06T17:06:45.715Z,34.25
2022-12-06T17:09:12.261Z,32.53
2022-12-06T17:11:57.339Z,31.60
2022-12-06T17:14:25.161Z,30.95
2022-12-06T17:16:51.699Z,29.25
2022-12-06T17:19:28.000Z,29.55
2022-12-06T17:21:55.183Z,29.15
2022-12-06T17:24:21.943Z,27.70
2022-12-06T17:26:48.439Z,28.42
2022-12-06T17:29:14.978Z,25.73
2022-12-06T17:31:42.560Z,24.52
2022-12-06T17:34:10.274Z,24.50
2022-12-06T17:36:36.796Z,23.17
2022-12-06T17:39:06.694Z,24.08
2022-12-06T17:41:52.354Z,23.42
2022-12-06T17:44:18.945Z,23.20
2022-12-06T17:46:45.417Z,21.25
2022-12-06T17:49:19.353Z,21.17
2022-12-06T17:51:45.819Z,21.08
2022-12-06T17:54:12.649Z,19.35
2022-12-06T17:56:43.349Z,19.95
2022-12-06T17:59:11.566Z,18.73
2022-12-06T18:02:06.176Z,18.70
2022-12-06T18:04:24.515Z,19.70
2022-12-06T18:06:51.009Z,18.25
2022-12-06T18:09:17.501Z,17.55
2022-12-06T18:11:44.014Z,17.15
2022-12-06T18:14:11.925Z,17.08
2022-12-06T18:16:39.249Z,15.65
2022-12-06T18:19:08.859Z,16.58
2022-12-06T18:21:39.605Z,16.98
2022-12-06T18:24:21.474Z,20.02
2022-12-06T18:26:48.990Z,29.50
2022-12-06T18:29:17.084Z,33.90
2022-12-06T18:31:43.661Z,32.45
2022-12-06T18:34:10.268Z,32.55
2022-12-06T18:36:36.745Z,30.90
2022-12-06T18:39:06.452Z,20.70
2022-12-06T18:41:36.321Z,19.85
2022-12-06T18:44:03.092Z,21.50
2022-12-06T18:46:29.828Z,21.95
2022-12-06T18:48:58.012Z,22.33
2022-12-06T18:51:29.432Z,21.60
2022-12-06T18:53:56.884Z,22.35
2022-12-06T18:56:24.290Z,22.77
2022-12-06T18:58:50.932Z,21.63
2022-12-06T19:01:19.309Z,20.85
2022-12-06T19:03:45.941Z,21.05
2022-12-06T19:06:14.237Z,21.38
2022-12-06T19:08:42.461Z,20.40
2022-12-06T19:11:17.644Z,19.40
2022-12-06T19:13:53.658Z,17.88
2022-12-06T19:16:21.561Z,16.60
2022-12-06T19:18:51.205Z,16.63
2022-12-06T19:21:17.883Z,17.08
2022-12-06T19:23:44.397Z,15.93
2022-12-06T19:26:10.865Z,15.65
2022-12-06T19:28:38.627Z,16.85
2022-12-06T19:31:07.625Z,16.23
2022-12-06T19:33:38.238Z,15.43
2022-12-06T19:36:10.920Z,14.02
2022-12-06T19:38:37.374Z,13.88
2022-12-06T19:41:05.097Z,13.85
2022-12-06T19:43:50.269Z,12.82
2022-12-06T19:46:21.910Z,12.85
2022-12-06T19:48:48.798Z,12.82
2022-12-06T19:51:15.476Z,12.15
2022-12-06T19:53:42.153Z,10.48
2022-12-06T19:56:13.327Z,11.85
2022-12-06T19:58:39.946Z,9.93
2022-12-06T20:01:10.786Z,10.52
2022-12-06T20:03:38.127Z,9.40
2022-12-06T20:06:06.657Z,9.00
2022-12-06T20:08:33.152Z,11.27
2022-12-06T20:11:04.089Z,27.88
2022-12-06T20:13:30.673Z,32.08
2022-12-06T20:16:01.993Z,37.80
2022-12-06T20:18:32.059Z,36.13
2022-12-06T20:20:58.523Z,35.17
2022-12-06T20:23:25.274Z,33.35
2022-12-06T20:25:51.733Z,30.67
2022-12-06T20:28:18.272Z,30.63
2022-12-06T20:30:44.876Z,31.08
2022-12-06T20:33:11.441Z,28.65
2022-12-06T20:35:37.996Z,27.73
2022-12-06T20:38:04.456Z,27.73
2022-12-06T20:40:31.699Z,26.20
2022-12-06T20:42:58.355Z,25.02
2022-12-06T20:45:24.926Z,23.98
2022-12-06T20:47:52.422Z,23.70
2022-12-06T20:50:18.883Z,23.70
2022-12-06T20:52:45.353Z,21.77
2022-12-06T20:55:11.851Z,22.13
2022-12-06T20:57:38.296Z,21.60
2022-12-06T21:00:07.807Z,29.38
2022-12-06T21:02:34.632Z,21.60
2022-12-06T21:05:01.188Z,23.77
2022-12-06T21:07:27.661Z,24.73
2022-12-06T21:09:54.141Z,21.45
2022-12-06T21:12:22.286Z,22.60
2022-12-06T21:14:48.812Z,19.95
2022-12-06T21:17:15.334Z,19.73
2022-12-06T21:19:42.586Z,23.23
2022-12-06T21:22:09.165Z,19.95
2022-12-06T21:24:35.661Z,19.00
2022-12-06T21:27:02.237Z,18.60
2022-12-06T21:29:31.123Z,18.35
2022-12-06T21:31:59.556Z,18.27
2022-12-06T21:34:26.018Z,17.88
2022-12-06T21:36:52.486Z,17.10
2022-12-06T21:39:19.220Z,16.60
2022-12-06T21:41:45.875Z,15.95
2022-12-06T21:44:12.405Z,15.25
2022-12-06T21:46:39.045Z,16.85
2022-12-06T21:49:05.845Z,16.60
2022-12-06T21:51:32.473Z,17.05
2022-12-06T21:53:59.015Z,16.35
2022-12-06T21:56:27.196Z,16.50
2022-12-06T21:58:54.086Z,15.13
2022-12-06T22:01:25.082Z,15.80
2022-12-06T22:03:53.119Z,15.60
2022-12-06T22:06:19.586Z,14.52
2022-12-06T22:08:46.248Z,14.80
2022-12-06T22:11:19.598Z,13.98
2022-12-06T22:13:47.169Z,13.25
2022-12-06T22:16:13.812Z,13.00
2022-12-06T22:18:45.024Z,13.00
2022-12-06T22:21:19.632Z,13.00
2022-12-06T22:23:46.653Z,13.50
2022-12-06T22:26:17.776Z,14.10
2022-12-06T22:28:44.233Z,13.82
2022-12-06T22:31:18.687Z,12.88
2022-12-06T22:33:45.318Z,11.82
2022-12-06T22:36:12.073Z,12.20
2022-12-06T22:38:38.609Z,11.20
2022-12-06T22:41:05.401Z,10.45
2022-12-06T22:43:31.996Z,10.63
2022-12-06T22:46:09.879Z,9.80
2022-12-06T22:48:36.528Z,9.45
2022-12-06T22:51:12.762Z,10.02
2022-12-06T22:53:39.785Z,9.40
2022-12-06T22:56:06.360Z,9.48
2022-12-06T22:58:32.848Z,8.48
2022-12-06T23:00:59.372Z,9.05
2022-12-06T23:03:25.870Z,8.38
2022-12-06T23:05:59.190Z,7.90
2022-12-06T23:08:25.800Z,8.35
2022-12-06T23:11:02.086Z,8.15
2022-12-06T23:13:28.898Z,7.45
2022-12-06T23:15:56.989Z,7.57
2022-12-06T23:18:23.469Z,8.60
2022-12-06T23:20:49.954Z,7.45
2022-12-06T23:23:16.411Z,6.57
2022-12-06T23:25:42.840Z,7.85
2022-12-06T23:28:09.286Z,7.60
2022-12-06T23:30:35.730Z,6.35
2022-12-06T23:33:02.169Z,6.78
2022-12-06T23:35:28.678Z,6.65
2022-12-06T23:37:55.129Z,6.60
2022-12-06T23:40:21.570Z,6.28
2022-12-06T23:42:48.022Z,6.10
2022-12-06T23:45:14.541Z,6.07
2022-12-06T23:47:41.024Z,6.32
2022-12-06T23:50:07.962Z,5.43
2022-12-06T23:52:34.477Z,6.07
2022-12-06T23:55:01.181Z,5.35
2022-12-06T23:57:27.775Z,5.53
2022-12-06T23:59:54.218Z,5.50
